Plymouth, NC (27962)

6:28 AM EST on January 27, 2015 (GMT -0500)
APRSWXNET Plymouth NC US | Change Station
CLOSE
Current Station
Personal Weather Station
Location: Plymouth, NC
Elevation: 9 ft
Nearby Weather Stations
Active Advisory: Special Statement

Elev 9 ft 35.89 °N, 76.73 °W | Updated 33 minutes ago

Overcast
Overcast
33 °F
Feels Like 33 °F
N
0
Wind Variable Wind from NW
Gusts 0.0 mph

Today
High -- | Low -- °F
--% Chance of Precip.
Yesterday
High -- | Low -- °F
Precip. -- in
7:11 AM 5:28 PM
First Quarter, 53% visible
Pressure 29.71 in
Visibility 10.0 miles
Clouds Mostly Cloudy 1900 ft
Overcast 3100 ft
Windchill 33 °F
Dew Point 29 °F
Humidity 85%
Rainfall -999.00 in
Snow Depth Not available.
UV 0 out of 12
Pollen .80 out of 12
Air Quality Not available.
Flu Activity Not available.
METAR KEDE 271115Z AUTO 36009KT 10SM BKN019 OVC031 00/M02 A2971 RMK AO2 T00011018

More Conditions Fewer Conditions

Pressure 29.71 in
Visibility 10.0 miles
Clouds Mostly Cloudy 1900 ft
Overcast 3100 ft
Windchill 33 °F
Dew Point 29 °F
Humidity 85%
Rainfall -999.00 in
Snow Depth Not available.
UV 0 out of 12
Pollen .80 out of 12
Air Quality Not available.
Flu Activity Not available.
METAR KEDE 271115Z AUTO 36009KT 10SM BKN019 OVC031 00/M02 A2971 RMK AO2 T00011018

More Conditions Fewer Conditions

10-Day Weather Forecast

Almanac

Astronomy

Jan. 27, 2015 Rise Set
Actual Time
Civil Twilight
Nautical Twilight
Astronomical Twilight
Moon
Length of Visible Light
Length of Day
Tomorrow will be .
, % of the Moon is Illuminated

Today's Extremes

State Highs State Lows

Community

WunderPhotos

Upload Photos

1,790,564 photos uploaded!

WunderBlogs® & News

Nearby

Air Quality

  Air Quality AQ Index Pollutant
Not available.

Snow Depth

Station Depth Elevation

Earthquake Activity

City Distance Mag. Time & Date
Minimum magnitude displayed is 2.5.

Coastal Water Temperatures

Place Temperature

Nearby Weather Stations